sensor_id;sensor_type;location;lat;lon;timestamp;pressure;altitude;pressure_sealevel;temperature;humidity
62634;BME280;48704;50.534;6.442;2022-09-09T00:06:59;94935.38;;;12.23;100.00
62634;BME280;48704;50.534;6.442;2022-09-09T00:09:28;94939.16;;;12.26;100.00
62634;BME280;48704;50.534;6.442;2022-09-09T00:12:00;94934.34;;;12.21;100.00
62634;BME280;48704;50.534;6.442;2022-09-09T00:17:19;94936.66;;;12.39;100.00
62634;BME280;48704;50.534;6.442;2022-09-09T00:20:00;94929.81;;;12.40;100.00
62634;BME280;48704;50.534;6.442;2022-09-09T00:22:29;94933.34;;;12.29;100.00
62634;BME280;48704;50.534;6.442;2022-09-09T00:25:11;94939.97;;;12.37;100.00
62634;BME280;48704;50.534;6.442;2022-09-09T00:27:48;94937.69;;;12.47;100.00
62634;BME280;48704;50.534;6.442;2022-09-09T00:30:19;94943.28;;;12.47;100.00
62634;BME280;48704;50.534;6.442;2022-09-09T00:32:48;94938.47;;;12.48;100.00
62634;BME280;48704;50.534;6.442;2022-09-09T00:35:22;94936.44;;;12.48;100.00
62634;BME280;48704;50.534;6.442;2022-09-09T00:37:52;94938.97;;;12.52;100.00
62634;BME280;48704;50.534;6.442;2022-09-09T00:40:24;94940.22;;;12.45;100.00
62634;BME280;48704;50.534;6.442;2022-09-09T00:43:13;94938.22;;;12.51;100.00
62634;BME280;48704;50.534;6.442;2022-09-09T00:46:06;94944.06;;;12.53;100.00
62634;BME280;48704;50.534;6.442;2022-09-09T00:57:26;94947.88;;;12.50;100.00
62634;BME280;48704;50.534;6.442;2022-09-09T01:03:02;94948.63;;;12.51;100.00
62634;BME280;48704;50.534;6.442;2022-09-09T01:05:49;94957.78;;;12.51;100.00
62634;BME280;48704;50.534;6.442;2022-09-09T01:11:33;94945.84;;;12.56;100.00
62634;BME280;48704;50.534;6.442;2022-09-09T01:14:27;94945.09;;;12.61;100.00
62634;BME280;48704;50.534;6.442;2022-09-09T01:16:59;94956.78;;;12.60;100.00
62634;BME280;48704;50.534;6.442;2022-09-09T01:28:08;94946.09;;;12.75;100.00
62634;BME280;48704;50.534;6.442;2022-09-09T01:30:38;94942.53;;;12.75;100.00
62634;BME280;48704;50.534;6.442;2022-09-09T01:33:04;94952.44;;;12.76;100.00
62634;BME280;48704;50.534;6.442;2022-09-09T01:38:00;94948.38;;;12.77;100.00
62634;BME280;48704;50.534;6.442;2022-09-09T01:40:26;94950.66;;;12.78;100.00
62634;BME280;48704;50.534;6.442;2022-09-09T01:42:52;94950.66;;;12.78;100.00
62634;BME280;48704;50.534;6.442;2022-09-09T01:45:18;94960.34;;;12.77;100.00
62634;BME280;48704;50.534;6.442;2022-09-09T01:47:45;94953.97;;;12.77;100.00
62634;BME280;48704;50.534;6.442;2022-09-09T01:50:13;94951.44;;;12.79;100.00
62634;BME280;48704;50.534;6.442;2022-09-09T01:52:39;94951.44;;;12.79;100.00
62634;BME280;48704;50.534;6.442;2022-09-09T01:55:06;94946.59;;;12.79;100.00
62634;BME280;48704;50.534;6.442;2022-09-09T01:57:57;94944.84;;;12.82;100.00
62634;BME280;48704;50.534;6.442;2022-09-09T02:00:24;94946.09;;;12.81;100.00
62634;BME280;48704;50.534;6.442;2022-09-09T02:08:55;94938.22;;;12.73;100.00
62634;BME280;48704;50.534;6.442;2022-09-09T02:11:05;94928.56;;;12.75;100.00
62634;BME280;48704;50.534;6.442;2022-09-09T02:13:32;94921.94;;;12.66;100.00
62634;BME280;48704;50.534;6.442;2022-09-09T02:17:01;94930.34;;;12.66;100.00
62634;BME280;48704;50.534;6.442;2022-09-09T02:19:29;94921.94;;;12.66;100.00
62634;BME280;48704;50.534;6.442;2022-09-09T02:21:59;94925.00;;;12.68;100.00
62634;BME280;48704;50.534;6.442;2022-09-09T02:24:27;94925.50;;;12.72;100.00
62634;BME280;48704;50.534;6.442;2022-09-09T02:26:55;94930.84;;;12.76;100.00
62634;BME280;48704;50.534;6.442;2022-09-09T02:29:26;94928.31;;;12.72;100.00
62634;BME280;48704;50.534;6.442;2022-09-09T02:31:57;94916.88;;;12.65;100.00
62634;BME280;48704;50.534;6.442;2022-09-09T02:34:24;94920.44;;;12.71;100.00
62634;BME280;48704;50.534;6.442;2022-09-09T02:36:53;94909.50;;;12.79;100.00
62634;BME280;48704;50.534;6.442;2022-09-09T02:39:19;94909.75;;;12.81;100.00
62634;BME280;48704;50.534;6.442;2022-09-09T02:41:44;94913.81;;;12.80;100.00
62634;BME280;48704;50.534;6.442;2022-09-09T02:44:15;94910.25;;;12.85;100.00
62634;BME280;48704;50.534;6.442;2022-09-09T02:46:48;94911.78;;;12.86;100.00
62634;BME280;48704;50.534;6.442;2022-09-09T02:52:08;94916.88;;;12.82;100.00
62634;BME280;48704;50.534;6.442;2022-09-09T02:54:36;94915.84;;;12.85;100.00
62634;BME280;48704;50.534;6.442;2022-09-09T02:57:10;94915.34;;;12.92;100.00
62634;BME280;48704;50.534;6.442;2022-09-09T02:59:36;94915.59;;;12.94;100.00
62634;BME280;48704;50.534;6.442;2022-09-09T03:02:03;94922.47;;;12.93;100.00
62634;BME280;48704;50.534;6.442;2022-09-09T03:04:29;94932.63;;;12.96;100.00
62634;BME280;48704;50.534;6.442;2022-09-09T03:06:55;94927.31;;;12.98;100.00
62634;BME280;48704;50.534;6.442;2022-09-09T03:09:21;94934.13;;;13.08;100.00
62634;BME280;48704;50.534;6.442;2022-09-09T03:11:46;94927.00;;;13.07;100.00
62634;BME280;48704;50.534;6.442;2022-09-09T03:14:11;94929.06;;;13.01;100.00
62634;BME280;48704;50.534;6.442;2022-09-09T03:16:37;94924.97;;;13.02;100.00
62634;BME280;48704;50.534;6.442;2022-09-09T03:19:03;94925.00;;;12.91;100.00
62634;BME280;48704;50.534;6.442;2022-09-09T03:21:28;94919.41;;;12.91;100.00
62634;BME280;48704;50.534;6.442;2022-09-09T03:23:54;94924.00;;;12.83;100.00
62634;BME280;48704;50.534;6.442;2022-09-09T03:26:19;94909.75;;;12.81;100.00
62634;BME280;48704;50.534;6.442;2022-09-09T03:28:45;94907.47;;;12.79;100.00
62634;BME280;48704;50.534;6.442;2022-09-09T03:31:10;94916.63;;;12.74;100.00
62634;BME280;48704;50.534;6.442;2022-09-09T03:33:39;94913.56;;;12.72;100.00
62634;BME280;48704;50.534;6.442;2022-09-09T03:36:06;94912.53;;;12.69;100.00
62634;BME280;48704;50.534;6.442;2022-09-09T03:38:33;94909.25;;;12.65;100.00
62634;BME280;48704;50.534;6.442;2022-09-09T03:40:59;94916.09;;;12.64;100.00
62634;BME280;48704;50.534;6.442;2022-09-09T03:43:25;94920.69;;;12.67;100.00
62634;BME280;48704;50.534;6.442;2022-09-09T03:45:51;94915.84;;;12.73;100.00
62634;BME280;48704;50.534;6.442;2022-09-09T03:48:17;94913.56;;;12.72;100.00
62634;BME280;48704;50.534;6.442;2022-09-09T03:50:50;94919.41;;;12.68;100.00
62634;BME280;48704;50.534;6.442;2022-09-09T03:53:18;94911.78;;;12.63;100.00
62634;BME280;48704;50.534;6.442;2022-09-09T03:55:48;94899.06;;;12.62;100.00
62634;BME280;48704;50.534;6.442;2022-09-09T03:58:15;94905.19;;;12.55;100.00
62634;BME280;48704;50.534;6.442;2022-09-09T04:00:41;94900.88;;;12.49;100.00
62634;BME280;48704;50.534;6.442;2022-09-09T04:03:09;94904.41;;;12.49;100.00
62634;BME280;48704;50.534;6.442;2022-09-09T04:05:34;94899.84;;;12.46;100.00
62634;BME280;48704;50.534;6.442;2022-09-09T04:08:00;94907.22;;;12.44;100.00
62634;BME280;48704;50.534;6.442;2022-09-09T04:10:25;94907.72;;;12.42;100.00
62634;BME280;48704;50.534;6.442;2022-09-09T04:12:51;94906.19;;;12.41;100.00
62634;BME280;48704;50.534;6.442;2022-09-09T04:15:17;94910.25;;;12.40;100.00
62634;BME280;48704;50.534;6.442;2022-09-09T04:17:43;94911.25;;;12.37;100.00
62634;BME280;48704;50.534;6.442;2022-09-09T04:20:09;94898.06;;;12.37;100.00
62634;BME280;48704;50.534;6.442;2022-09-09T04:22:37;94890.19;;;12.36;100.00
62634;BME280;48704;50.534;6.442;2022-09-09T04:25:05;94898.56;;;12.36;100.00
62634;BME280;48704;50.534;6.442;2022-09-09T04:27:30;94886.88;;;12.32;100.00
62634;BME280;48704;50.534;6.442;2022-09-09T04:29:56;94895.25;;;12.26;100.00
62634;BME280;48704;50.534;6.442;2022-09-09T04:32:22;94894.50;;;12.31;100.00
62634;BME280;48704;50.534;6.442;2022-09-09T04:34:48;94898.81;;;12.32;100.00
62634;BME280;48704;50.534;6.442;2022-09-09T04:37:13;94901.09;;;12.34;100.00
62634;BME280;48704;50.534;6.442;2022-09-09T04:39:39;94896.00;;;12.27;100.00
62634;BME280;48704;50.534;6.442;2022-09-09T04:42:04;94901.88;;;12.23;100.00
62634;BME280;48704;50.534;6.442;2022-09-09T04:44:30;94901.88;;;12.23;100.00
62634;BME280;48704;50.534;6.442;2022-09-09T04:46:55;94908.22;;;12.24;100.00
62634;BME280;48704;50.534;6.442;2022-09-09T04:49:21;94917.34;;;12.35;100.00
62634;BME280;48704;50.534;6.442;2022-09-09T04:51:48;94904.66;;;12.40;100.00
62634;BME280;48704;50.534;6.442;2022-09-09T04:54:14;94914.34;;;12.50;100.00
62634;BME280;48704;50.534;6.442;2022-09-09T04:56:39;94912.53;;;12.47;100.00
62634;BME280;48704;50.534;6.442;2022-09-09T04:59:06;94912.06;;;12.54;100.00
62634;BME280;48704;50.534;6.442;2022-09-09T05:01:32;94918.41;;;12.55;100.00
62634;BME280;48704;50.534;6.442;2022-09-09T05:03:57;94920.44;;;12.54;100.00
62634;BME280;48704;50.534;6.442;2022-09-09T05:06:23;94918.91;;;12.53;100.00
62634;BME280;48704;50.534;6.442;2022-09-09T05:08:48;94906.97;;;12.58;100.00
62634;BME280;48704;50.534;6.442;2022-09-09T05:11:25;94913.03;;;12.62;100.00
62634;BME280;48704;50.534;6.442;2022-09-09T05:13:51;94910.53;;;12.53;100.00
62634;BME280;48704;50.534;6.442;2022-09-09T05:16:17;94914.84;;;12.54;100.00
62634;BME280;48704;50.534;6.442;2022-09-09T05:18:43;94918.66;;;12.57;100.00
62634;BME280;48704;50.534;6.442;2022-09-09T05:21:09;94915.34;;;12.58;100.00
62634;BME280;48704;50.534;6.442;2022-09-09T05:23:35;94919.41;;;12.57;100.00
62634;BME280;48704;50.534;6.442;2022-09-09T05:26:01;94912.31;;;12.56;100.00
62634;BME280;48704;50.534;6.442;2022-09-09T05:28:27;94916.88;;;12.59;100.00
62634;BME280;48704;50.534;6.442;2022-09-09T05:31:01;94925.00;;;12.57;100.00
62634;BME280;48704;50.534;6.442;2022-09-09T05:33:29;94924.00;;;12.55;100.00
62634;BME280;48704;50.534;6.442;2022-09-09T05:35:58;94914.84;;;12.54;100.00
62634;BME280;48704;50.534;6.442;2022-09-09T05:38:24;94913.31;;;12.53;100.00
62634;BME280;48704;50.534;6.442;2022-09-09T05:40:50;94921.44;;;12.51;100.00
62634;BME280;48704;50.534;6.442;2022-09-09T05:43:18;94921.69;;;12.53;100.00
62634;BME280;48704;50.534;6.442;2022-09-09T05:45:43;94925.50;;;12.50;100.00
62634;BME280;48704;50.534;6.442;2022-09-09T05:48:08;94931.09;;;12.50;100.00
62634;BME280;48704;50.534;6.442;2022-09-09T05:50:33;94938.22;;;12.51;100.00
62634;BME280;48704;50.534;6.442;2022-09-09T05:52:59;94928.53;;;12.63;100.00
62634;BME280;48704;50.534;6.442;2022-09-09T05:55:24;94918.41;;;12.60;100.00
62634;BME280;48704;50.534;6.442;2022-09-09T05:57:50;94928.56;;;12.75;100.00
62634;BME280;48704;50.534;6.442;2022-09-09T06:00:17;94929.06;;;12.79;100.00
62634;BME280;48704;50.534;6.442;2022-09-09T06:02:42;94921.19;;;12.77;100.00
62634;BME280;48704;50.534;6.442;2022-09-09T06:05:08;94930.59;;;12.74;100.00
62634;BME280;48704;50.534;6.442;2022-09-09T06:07:35;94924.47;;;12.64;100.00
62634;BME280;48704;50.534;6.442;2022-09-09T06:10:00;94930.34;;;12.66;100.00
62634;BME280;48704;50.534;6.442;2022-09-09T06:12:26;94928.06;;;12.76;100.00
62634;BME280;48704;50.534;6.442;2022-09-09T06:14:51;94923.22;;;12.71;100.00
62634;BME280;48704;50.534;6.442;2022-09-09T06:17:16;94919.41;;;12.68;100.00
62634;BME280;48704;50.534;6.442;2022-09-09T06:19:42;94915.34;;;12.81;100.00
62634;BME280;48704;50.534;6.442;2022-09-09T06:22:07;94922.22;;;12.85;100.00
62634;BME280;48704;50.534;6.442;2022-09-09T06:24:36;94917.88;;;12.84;100.00
62634;BME280;48704;50.534;6.442;2022-09-09T06:27:02;94913.56;;;12.89;100.00
62634;BME280;48704;50.534;6.442;2022-09-09T06:29:28;94914.84;;;12.88;100.00
62634;BME280;48704;50.534;6.442;2022-09-09T06:31:53;94911.28;;;12.87;100.00
62634;BME280;48704;50.534;6.442;2022-09-09T06:34:18;94899.59;;;12.89;100.00
62634;BME280;48704;50.534;6.442;2022-09-09T06:36:44;94909.75;;;12.92;100.00
62634;BME280;48704;50.534;6.442;2022-09-09T06:39:10;94908.75;;;12.95;100.00
62634;BME280;48704;50.534;6.442;2022-09-09T06:41:36;94905.94;;;12.95;100.00
62634;BME280;48704;50.534;6.442;2022-09-09T06:44:03;94900.84;;;12.99;100.00
62634;BME280;48704;50.534;6.442;2022-09-09T06:46:30;94900.81;;;13.10;100.00
62634;BME280;48704;50.534;6.442;2022-09-09T06:48:57;94897.78;;;13.08;100.00
62634;BME280;48704;50.534;6.442;2022-09-09T06:51:31;94894.50;;;12.93;100.00
62634;BME280;48704;50.534;6.442;2022-09-09T06:53:59;94897.56;;;12.95;100.00
62634;BME280;48704;50.534;6.442;2022-09-09T06:56:33;94900.59;;;12.97;100.00
62634;BME280;48704;50.534;6.442;2022-09-09T06:59:01;94902.63;;;12.91;100.00
62634;BME280;48704;50.534;6.442;2022-09-09T07:01:30;94897.00;;;13.02;100.00
62634;BME280;48704;50.534;6.442;2022-09-09T07:03:58;94894.97;;;13.14;100.00
62634;BME280;48704;50.534;6.442;2022-09-09T07:06:31;94897.53;;;13.06;100.00
62634;BME280;48704;50.534;6.442;2022-09-09T07:08:59;94902.09;;;13.09;100.00
62634;BME280;48704;50.534;6.442;2022-09-09T07:11:27;94905.66;;;13.04;100.00
62634;BME280;48704;50.534;6.442;2022-09-09T07:13:53;94917.88;;;13.23;100.00
62634;BME280;48704;50.534;6.442;2022-09-09T07:16:20;94905.63;;;13.37;100.00
62634;BME280;48704;50.534;6.442;2022-09-09T07:18:46;94909.16;;;13.44;100.00
62634;BME280;48704;50.534;6.442;2022-09-09T07:21:13;94908.41;;;13.37;100.00
62634;BME280;48704;50.534;6.442;2022-09-09T07:23:42;94914.72;;;13.60;100.00
62634;BME280;48704;50.534;6.442;2022-09-09T07:28:34;94908.78;;;13.81;100.00
62634;BME280;48704;50.534;6.442;2022-09-09T07:31:01;94923.38;;;13.57;100.00
62634;BME280;48704;50.534;6.442;2022-09-09T07:33:33;94916.50;;;13.63;100.00
62634;BME280;48704;50.534;6.442;2022-09-09T07:36:13;94915.25;;;13.48;100.00
62634;BME280;48704;50.534;6.442;2022-09-09T07:38:43;94917.81;;;13.40;100.00
62634;BME280;48704;50.534;6.442;2022-09-09T07:41:20;94917.84;;;13.34;100.00
62634;BME280;48704;50.534;6.442;2022-09-09T07:43:46;94937.66;;;13.48;100.00
62634;BME280;48704;50.534;6.442;2022-09-09T07:46:14;94928.75;;;13.49;100.00
62634;BME280;48704;50.534;6.442;2022-09-09T07:48:47;94936.63;;;13.51;100.00
62634;BME280;48704;50.534;6.442;2022-09-09T07:51:18;94940.44;;;13.53;100.00
62634;BME280;48704;50.534;6.442;2022-09-09T07:53:45;94945.28;;;13.53;100.00
62634;BME280;48704;50.534;6.442;2022-09-09T07:56:13;94952.16;;;13.46;100.00
62634;BME280;48704;50.534;6.442;2022-09-09T07:58:42;94954.19;;;13.46;100.00
62634;BME280;48704;50.534;6.442;2022-09-09T08:01:11;94949.63;;;13.43;100.00
62634;BME280;48704;50.534;6.442;2022-09-09T08:03:37;94953.16;;;13.54;100.00
62634;BME280;48704;50.534;6.442;2022-09-09T08:06:04;94945.25;;;13.64;100.00
62634;BME280;48704;50.534;6.442;2022-09-09T08:08:32;94944.72;;;13.71;100.00
62634;BME280;48704;50.534;6.442;2022-09-09T08:11:02;94956.41;;;13.75;100.00
62634;BME280;48704;50.534;6.442;2022-09-09T08:13:28;94959.66;;;13.96;100.00
62634;BME280;48704;50.534;6.442;2022-09-09T08:15:53;94954.16;;;13.57;100.00
62634;BME280;48704;50.534;6.442;2022-09-09T08:18:19;94951.03;;;13.77;100.00
62634;BME280;48704;50.534;6.442;2022-09-09T08:20:44;94953.53;;;13.92;100.00
62634;BME280;48704;50.534;6.442;2022-09-09T08:23:09;94951.00;;;13.94;100.00
62634;BME280;48704;50.534;6.442;2022-09-09T08:25:35;94956.94;;;13.68;100.00
62634;BME280;48704;50.534;6.442;2022-09-09T08:28:00;94950.50;;;13.90;100.00
62634;BME280;48704;50.534;6.442;2022-09-09T08:30:26;94956.91;;;14.37;100.00
62634;BME280;48704;50.534;6.442;2022-09-09T08:32:51;94948.13;;;14.11;100.00
62634;BME280;48704;50.534;6.442;2022-09-09T08:35:17;94949.06;;;14.24;100.00
62634;BME280;48704;50.534;6.442;2022-09-09T08:37:42;94964.81;;;14.33;100.00
62634;BME280;48704;50.534;6.442;2022-09-09T08:40:17;94968.22;;;14.61;100.00
62634;BME280;48704;50.534;6.442;2022-09-09T08:42:51;94959.50;;;14.24;100.00
62634;BME280;48704;50.534;6.442;2022-09-09T08:45:25;94959.81;;;14.15;100.00
62634;BME280;48704;50.534;6.442;2022-09-09T08:50:25;94962.69;;;13.98;100.00
62634;BME280;48704;50.534;6.442;2022-09-09T08:53:01;94962.84;;;14.17;100.00
62634;BME280;48704;50.534;6.442;2022-09-09T08:55:48;94968.94;;;14.21;100.00
62634;BME280;48704;50.534;6.442;2022-09-09T08:58:19;94961.88;;;14.09;100.00
62634;BME280;48704;50.534;6.442;2022-09-09T09:03:15;94969.53;;;14.96;100.00
62634;BME280;48704;50.534;6.442;2022-09-09T09:05:59;94969.91;;;15.11;100.00
62634;BME280;48704;50.534;6.442;2022-09-09T09:08:41;94963.88;;;14.66;100.00
62634;BME280;48704;50.534;6.442;2022-09-09T09:11:09;94970.72;;;14.70;100.00
62634;BME280;48704;50.534;6.442;2022-09-09T09:13:47;94974.84;;;14.64;100.00
62634;BME280;48704;50.534;6.442;2022-09-09T09:16:56;94977.44;;;14.56;100.00
62634;BME280;48704;50.534;6.442;2022-09-09T09:19:23;94967.75;;;14.93;100.00
62634;BME280;48704;50.534;6.442;2022-09-09T09:26:50;94970.56;;;14.93;100.00
62634;BME280;48704;50.534;6.442;2022-09-09T09:29:18;94978.13;;;14.68;100.00
62634;BME280;48704;50.534;6.442;2022-09-09T09:31:51;94987.22;;;14.44;100.00
62634;BME280;48704;50.534;6.442;2022-09-09T09:34:17;94986.78;;;14.18;100.00
62634;BME280;48704;50.534;6.442;2022-09-09T09:36:45;94973.75;;;14.26;100.00
62634;BME280;48704;50.534;6.442;2022-09-09T09:39:26;94988.28;;;14.30;100.00
62634;BME280;48704;50.534;6.442;2022-09-09T09:41:52;94984.16;;;14.36;100.00
62634;BME280;48704;50.534;6.442;2022-09-09T09:44:30;94988.59;;;14.67;100.00
62634;BME280;48704;50.534;6.442;2022-09-09T09:47:07;94985.44;;;14.41;100.00
62634;BME280;48704;50.534;6.442;2022-09-09T09:49:32;94984.34;;;14.50;100.00
62634;BME280;48704;50.534;6.442;2022-09-09T09:52:04;95006.22;;;14.04;100.00
62634;BME280;48704;50.534;6.442;2022-09-09T09:54:34;94996.44;;;13.48;100.00
62634;BME280;48704;50.534;6.442;2022-09-09T09:57:13;94989.56;;;13.37;100.00
62634;BME280;48704;50.534;6.442;2022-09-09T09:59:40;94995.66;;;13.53;100.00
62634;BME280;48704;50.534;6.442;2022-09-09T10:04:38;94994.88;;;13.52;100.00
62634;BME280;48704;50.534;6.442;2022-09-09T10:07:12;94989.09;;;13.33;100.00
62634;BME280;48704;50.534;6.442;2022-09-09T10:09:37;94994.66;;;13.45;100.00
62634;BME280;48704;50.534;6.442;2022-09-09T10:12:59;94985.47;;;13.50;100.00
62634;BME280;48704;50.534;6.442;2022-09-09T10:16:08;94998.47;;;13.47;100.00
62634;BME280;48704;50.534;6.442;2022-09-09T10:18:47;94995.16;;;13.37;100.00
62634;BME280;48704;50.534;6.442;2022-09-09T10:21:20;94996.22;;;13.34;100.00
62634;BME280;48704;50.534;6.442;2022-09-09T10:24:10;94978.16;;;13.30;100.00
62634;BME280;48704;50.534;6.442;2022-09-09T10:26:49;94988.03;;;13.14;100.00
62634;BME280;48704;50.534;6.442;2022-09-09T10:32:33;94989.56;;;14.23;100.00
62634;BME280;48704;50.534;6.442;2022-09-09T10:37:51;94988.78;;;15.95;100.00
62634;BME280;48704;50.534;6.442;2022-09-09T10:43:03;94971.38;;;16.58;99.75
62634;BME280;48704;50.534;6.442;2022-09-09T10:51:23;94991.31;;;14.84;100.00
62634;BME280;48704;50.534;6.442;2022-09-09T10:54:07;94985.06;;;14.61;100.00
62634;BME280;48704;50.534;6.442;2022-09-09T10:56:36;94997.97;;;15.11;100.00
62634;BME280;48704;50.534;6.442;2022-09-09T10:59:12;94986.56;;;15.33;100.00
62634;BME280;48704;50.534;6.442;2022-09-09T11:04:22;94990.88;;;15.34;100.00
62634;BME280;48704;50.534;6.442;2022-09-09T11:06:52;94984.81;;;14.95;100.00
62634;BME280;48704;50.534;6.442;2022-09-09T11:09:24;94984.66;;;15.17;100.00
62634;BME280;48704;50.534;6.442;2022-09-09T11:11:53;94968.13;;;15.92;99.68
62634;BME280;48704;50.534;6.442;2022-09-09T11:17:02;94972.66;;;17.72;89.92
62634;BME280;48704;50.534;6.442;2022-09-09T11:19:38;94971.34;;;16.96;88.39
62634;BME280;48704;50.534;6.442;2022-09-09T11:22:15;94970.06;;;17.29;86.18
62634;BME280;48704;50.534;6.442;2022-09-09T11:24:51;94968.03;;;17.43;87.46
62634;BME280;48704;50.534;6.442;2022-09-09T11:35:33;94961.56;;;16.84;85.15
62634;BME280;48704;50.534;6.442;2022-09-09T11:38:08;94964.59;;;16.48;86.38
62634;BME280;48704;50.534;6.442;2022-09-09T11:40:38;94961.94;;;16.75;87.04
62634;BME280;48704;50.534;6.442;2022-09-09T11:43:12;94971.00;;;16.05;88.61
62634;BME280;48704;50.534;6.442;2022-09-09T11:45:41;94961.09;;;16.23;90.05
62634;BME280;48704;50.534;6.442;2022-09-09T11:51:08;94962.91;;;17.73;82.53
62634;BME280;48704;50.534;6.442;2022-09-09T11:53:35;94959.72;;;16.86;83.92
62634;BME280;48704;50.534;6.442;2022-09-09T11:56:13;94958.50;;;16.44;86.31
62634;BME280;48704;50.534;6.442;2022-09-09T12:01:50;94976.75;;;16.19;91.56
62634;BME280;48704;50.534;6.442;2022-09-09T12:06:55;94988.28;;;15.12;100.00
62634;BME280;48704;50.534;6.442;2022-09-09T12:09:29;94988.88;;;14.99;100.00
62634;BME280;48704;50.534;6.442;2022-09-09T12:12:16;94995.06;;;14.51;100.00
62634;BME280;48704;50.534;6.442;2022-09-09T12:15:00;95009.22;;;14.12;100.00
62634;BME280;48704;50.534;6.442;2022-09-09T12:17:28;94999.34;;;14.05;100.00
62634;BME280;48704;50.534;6.442;2022-09-09T12:20:11;95001.94;;;13.81;100.00
62634;BME280;48704;50.534;6.442;2022-09-09T12:22:50;95003.72;;;14.53;100.00
62634;BME280;48704;50.534;6.442;2022-09-09T12:30:34;94989.47;;;16.82;100.00
62634;BME280;48704;50.534;6.442;2022-09-09T12:33:10;94989.41;;;17.19;100.00
62634;BME280;48704;50.534;6.442;2022-09-09T12:35:37;94995.25;;;16.89;100.00
62634;BME280;48704;50.534;6.442;2022-09-09T12:38:05;94992.19;;;16.87;100.00
62634;BME280;48704;50.534;6.442;2022-09-09T12:40:36;94991.78;;;16.64;100.00
62634;BME280;48704;50.534;6.442;2022-09-09T12:43:19;94989.19;;;15.80;100.00
62634;BME280;48704;50.534;6.442;2022-09-09T12:45:46;94988.56;;;17.24;100.00
62634;BME280;48704;50.534;6.442;2022-09-09T12:48:12;94976.72;;;17.45;100.00
62634;BME280;48704;50.534;6.442;2022-09-09T12:50:51;94980.78;;;16.98;100.00
62634;BME280;48704;50.534;6.442;2022-09-09T12:53:24;94972.28;;;16.48;100.00
62634;BME280;48704;50.534;6.442;2022-09-09T12:57:10;94981.13;;;15.71;100.00
62634;BME280;48704;50.534;6.442;2022-09-09T12:59:42;94978.59;;;15.67;100.00
62634;BME280;48704;50.534;6.442;2022-09-09T13:02:20;94979.59;;;15.70;100.00
62634;BME280;48704;50.534;6.442;2022-09-09T13:04:46;94979.47;;;15.81;100.00
62634;BME280;48704;50.534;6.442;2022-09-09T13:07:12;94984.22;;;15.37;100.00
62634;BME280;48704;50.534;6.442;2022-09-09T13:09:39;94981.63;;;15.15;100.00
62634;BME280;48704;50.534;6.442;2022-09-09T13:12:06;94974.00;;;15.10;100.00
62634;BME280;48704;50.534;6.442;2022-09-09T13:14:37;94988.41;;;15.25;100.00
62634;BME280;48704;50.534;6.442;2022-09-09T13:17:04;94976.03;;;16.13;100.00
62634;BME280;48704;50.534;6.442;2022-09-09T13:19:38;94974.09;;;15.59;100.00
62634;BME280;48704;50.534;6.442;2022-09-09T13:22:13;94978.84;;;14.80;100.00
62634;BME280;48704;50.534;6.442;2022-09-09T13:24:39;94975.13;;;14.96;100.00
62634;BME280;48704;50.534;6.442;2022-09-09T13:27:24;94973.22;;;14.80;100.00
62634;BME280;48704;50.534;6.442;2022-09-09T13:29:52;94960.47;;;14.79;100.00
62634;BME280;48704;50.534;6.442;2022-09-09T13:32:22;94960.13;;;14.52;100.00
62634;BME280;48704;50.534;6.442;2022-09-09T13:34:56;94947.47;;;14.40;100.00
62634;BME280;48704;50.534;6.442;2022-09-09T13:37:26;94960.38;;;15.98;100.00
62634;BME280;48704;50.534;6.442;2022-09-09T13:39:56;94952.06;;;16.49;100.00
62634;BME280;48704;50.534;6.442;2022-09-09T13:42:41;94943.53;;;16.36;100.00
62634;BME280;48704;50.534;6.442;2022-09-09T13:45:19;94947.47;;;16.09;100.00
62634;BME280;48704;50.534;6.442;2022-09-09T13:47:49;94947.34;;;15.77;100.00
62634;BME280;48704;50.534;6.442;2022-09-09T13:50:26;94940.63;;;15.85;100.00
62634;BME280;48704;50.534;6.442;2022-09-09T13:52:56;94944.75;;;18.48;100.00
62634;BME280;48704;50.534;6.442;2022-09-09T13:55:25;94932.91;;;17.30;100.00
62634;BME280;48704;50.534;6.442;2022-09-09T13:57:55;94939.44;;;18.44;100.00
62634;BME280;48704;50.534;6.442;2022-09-09T14:00:21;94929.06;;;18.94;94.13
62634;BME280;48704;50.534;6.442;2022-09-09T14:02:48;94933.50;;;19.23;93.34
62634;BME280;48704;50.534;6.442;2022-09-09T14:05:14;94922.94;;;19.03;88.34
62634;BME280;48704;50.534;6.442;2022-09-09T14:07:41;94925.31;;;19.54;88.05
62634;BME280;48704;50.534;6.442;2022-09-09T14:10:07;94924.91;;;19.29;85.77
62634;BME280;48704;50.534;6.442;2022-09-09T14:12:33;94935.34;;;18.79;87.12
62634;BME280;48704;50.534;6.442;2022-09-09T14:14:58;94924.69;;;18.85;86.72
62634;BME280;48704;50.534;6.442;2022-09-09T14:17:25;94929.72;;;18.19;88.08
62634;BME280;48704;50.534;6.442;2022-09-09T14:19:54;94938.44;;;17.49;92.46
62634;BME280;48704;50.534;6.442;2022-09-09T14:22:20;94936.31;;;17.10;94.67
62634;BME280;48704;50.534;6.442;2022-09-09T14:24:45;94951.66;;;16.96;96.34
62634;BME280;48704;50.534;6.442;2022-09-09T14:27:11;94949.63;;;16.40;100.00
62634;BME280;48704;50.534;6.442;2022-09-09T14:29:36;94953.19;;;16.22;100.00
62634;BME280;48704;50.534;6.442;2022-09-09T14:32:01;94955.06;;;15.70;100.00
62634;BME280;48704;50.534;6.442;2022-09-09T14:34:27;94965.31;;;15.68;100.00
62634;BME280;48704;50.534;6.442;2022-09-09T14:36:52;94964.09;;;15.33;100.00
62634;BME280;48704;50.534;6.442;2022-09-09T14:39:17;94965.22;;;14.89;100.00
62634;BME280;48704;50.534;6.442;2022-09-09T14:41:43;94967.13;;;14.76;100.00
62634;BME280;48704;50.534;6.442;2022-09-09T14:44:08;94976.34;;;15.06;100.00
62634;BME280;48704;50.534;6.442;2022-09-09T14:46:33;94975.00;;;16.16;100.00